Huvudsida
METAR-TAF:

METAR-TAF

Flygplatser :

Mo i Rana flygplats. Røssvoll

Mo i Rana, Norge

latitud: 66-22N, longitud: 014-18E, höjd: 7 m

Aktuellt väderrapport

Denna rapport gjordes för 1 timme och 48 minuter sedan, klockan 22:50 UTC
Vind 2 kt varierande vindriktning
Temperatur 4°C
Fuktighet 100%
Tryck 1011 hPa
Sikt 10 km eller mer
Få moln på en höjd av 400 ft
Spridda moln på en höjd av 1200 ft
Brutna moln på en höjd av 4000 ft
lätt regn

METAR: ENRA 142250Z VRB02KT 9999 -RA FEW004 SCT012 BKN040 04/04 Q1011

Tid: 01:38 (00:38 UTC)

Väderprognos

Denna rapport gjordes för 7 timmar och 38 minuter sedan, klockan 17:00 UTC
Prognos gäller från 14 kl. 18 UTC till 14 kl. 23 UTC
Vind 5 kt varierande vindriktning
Sikt 10 km eller mer
Få moln på en höjd av 1500 ft
Brutna moln på en höjd av 3000 ft

TAF: ENRA 141700Z 1418/1423 VRB05KT 9999 FEW015 BKN030

Aktuella väderrapporter och prognoser från 4000 flygplatser (METAR- och TAF-rapporter).

De tillgängliga stationerna syns som gula och röda prickar på kartan.

För musen över prickarna för att se namnen på stationerna.

Klicka sedan för att få väderrapporter och prognoser.

För att ändra kartan: Klicka på de gröna knapparna med ett svart kors på för att zooma in; den gröna knappen med ett streck på för att zooma ut; eller på de gröna pilarna för angränsande kartor.


METAR-TAF: